sensor_id;sensor_type;location;lat;lon;timestamp;pressure;altitude;pressure_sealevel;temperature;humidity
65329;BME280;51941;52.210;5.158;2023-01-31T00:00:23;102385.75;;;2.78;82.14
65329;BME280;51941;52.210;5.158;2023-01-31T00:02:50;102395.53;;;2.76;82.00
65329;BME280;51941;52.210;5.158;2023-01-31T00:05:18;102387.81;;;2.74;82.10
65329;BME280;51941;52.210;5.158;2023-01-31T00:07:45;102362.13;;;2.60;82.25
65329;BME280;51941;52.210;5.158;2023-01-31T00:10:12;102381.38;;;2.69;82.21
65329;BME280;51941;52.210;5.158;2023-01-31T00:12:39;102389.59;;;2.74;82.02
65329;BME280;51941;52.210;5.158;2023-01-31T00:15:06;102378.31;;;2.73;82.24
65329;BME280;51941;52.210;5.158;2023-01-31T00:17:33;102378.31;;;2.73;82.27
65329;BME280;51941;52.210;5.158;2023-01-31T00:20:00;102369.66;;;2.73;82.21
65329;BME280;51941;52.210;5.158;2023-01-31T00:22:28;102364.41;;;2.73;82.02
65329;BME280;51941;52.210;5.158;2023-01-31T00:24:54;102351.47;;;2.71;82.29
65329;BME280;51941;52.210;5.158;2023-01-31T00:27:21;102339.81;;;2.66;82.05
65329;BME280;51941;52.210;5.158;2023-01-31T00:29:48;102345.97;;;2.74;82.09
65329;BME280;51941;52.210;5.158;2023-01-31T00:32:15;102335.53;;;2.74;82.14
65329;BME280;51941;52.210;5.158;2023-01-31T00:34:42;102330.16;;;2.76;82.01
65329;BME280;51941;52.210;5.158;2023-01-31T00:37:11;102212.47;;;2.12;82.19
65329;BME280;51941;52.210;5.158;2023-01-31T00:39:40;102312.81;;;2.75;82.23
65329;BME280;51941;52.210;5.158;2023-01-31T00:42:07;102275.19;;;2.49;82.43
65329;BME280;51941;52.210;5.158;2023-01-31T00:44:34;102287.16;;;2.51;82.24
65329;BME280;51941;52.210;5.158;2023-01-31T00:47:01;102306.91;;;2.73;82.30
65329;BME280;51941;52.210;5.158;2023-01-31T00:49:28;102301.81;;;2.71;82.36
65329;BME280;51941;52.210;5.158;2023-01-31T00:51:54;102301.81;;;2.71;82.58
65329;BME280;51941;52.210;5.158;2023-01-31T00:54:21;102298.50;;;2.69;82.30
65329;BME280;51941;52.210;5.158;2023-01-31T00:56:49;102291.66;;;2.68;82.21
65329;BME280;51941;52.210;5.158;2023-01-31T00:59:17;102270.66;;;2.51;82.20
65329;BME280;51941;52.210;5.158;2023-01-31T01:01:43;102291.78;;;2.67;82.22
65329;BME280;51941;52.210;5.158;2023-01-31T01:04:10;102289.31;;;2.65;82.38
65329;BME280;51941;52.210;5.158;2023-01-31T01:06:37;102292.88;;;2.64;82.29
65329;BME280;51941;52.210;5.158;2023-01-31T01:09:05;102293.84;;;2.63;82.28
65329;BME280;51941;52.210;5.158;2023-01-31T01:11:33;102291.38;;;2.62;82.37
65329;BME280;51941;52.210;5.158;2023-01-31T01:14:02;102287.13;;;2.61;82.23
65329;BME280;51941;52.210;5.158;2023-01-31T01:16:32;102280.41;;;2.58;82.04
65329;BME280;51941;52.210;5.158;2023-01-31T01:19:01;102291.53;;;2.60;82.15
65329;BME280;51941;52.210;5.158;2023-01-31T01:21:30;102285.50;;;2.60;82.15
65329;BME280;51941;52.210;5.158;2023-01-31T01:24:00;102295.13;;;2.59;82.40
65329;BME280;51941;52.210;5.158;2023-01-31T01:26:29;102296.91;;;2.59;82.45
65329;BME280;51941;52.210;5.158;2023-01-31T01:28:58;102252.13;;;2.34;82.21
65329;BME280;51941;52.210;5.158;2023-01-31T01:31:27;102290.41;;;2.63;82.61
65329;BME280;51941;52.210;5.158;2023-01-31T01:33:56;102299.78;;;2.65;82.84
65329;BME280;51941;52.210;5.158;2023-01-31T01:36:24;102291.66;;;2.68;82.54
65329;BME280;51941;52.210;5.158;2023-01-31T01:38:51;102289.41;;;2.73;82.85
65329;BME280;51941;52.210;5.158;2023-01-31T01:41:20;102261.28;;;2.58;83.14
65329;BME280;51941;52.210;5.158;2023-01-31T01:43:50;102297.78;;;2.87;82.92
65329;BME280;51941;52.210;5.158;2023-01-31T01:46:20;102293.59;;;2.94;82.80
65329;BME280;51941;52.210;5.158;2023-01-31T01:48:53;102304.03;;;3.03;82.91
65329;BME280;51941;52.210;5.158;2023-01-31T01:51:23;102304.94;;;3.12;82.56
65329;BME280;51941;52.210;5.158;2023-01-31T01:53:53;102299.81;;;3.20;82.53
65329;BME280;51941;52.210;5.158;2023-01-31T01:56:25;102307.75;;;3.28;82.60
65329;BME280;51941;52.210;5.158;2023-01-31T01:58:57;102275.84;;;3.15;82.67
65329;BME280;51941;52.210;5.158;2023-01-31T02:01:28;102309.72;;;3.44;82.53
65329;BME280;51941;52.210;5.158;2023-01-31T02:03:59;102296.19;;;3.48;82.65
65329;BME280;51941;52.210;5.158;2023-01-31T02:06:29;102290.03;;;3.58;82.40
65329;BME280;51941;52.210;5.158;2023-01-31T02:08:56;102290.28;;;3.64;82.52
65329;BME280;51941;52.210;5.158;2023-01-31T02:11:25;102300.97;;;3.71;82.28
65329;BME280;51941;52.210;5.158;2023-01-31T02:13:56;102300.69;;;3.74;82.11
65329;BME280;51941;52.210;5.158;2023-01-31T02:16:26;102302.69;;;3.80;82.10
65329;BME280;51941;52.210;5.158;2023-01-31T02:18:53;102272.59;;;3.66;82.19
65329;BME280;51941;52.210;5.158;2023-01-31T02:21:53;102302.63;;;3.89;81.95
65329;BME280;51941;52.210;5.158;2023-01-31T02:25:00;102300.50;;;3.93;82.13
65329;BME280;51941;52.210;5.158;2023-01-31T02:31:11;102290.56;;;3.97;82.28
65329;BME280;51941;52.210;5.158;2023-01-31T02:33:48;102282.91;;;4.03;82.20
65329;BME280;51941;52.210;5.158;2023-01-31T02:36:26;102279.16;;;4.06;82.05
65329;BME280;51941;52.210;5.158;2023-01-31T02:39:02;102282.31;;;4.09;82.00
65329;BME280;51941;52.210;5.158;2023-01-31T02:41:38;102271.50;;;4.12;82.24
65329;BME280;51941;52.210;5.158;2023-01-31T02:44:14;102280.72;;;4.16;82.05
65329;BME280;51941;52.210;5.158;2023-01-31T02:47:09;102264.69;;;4.19;82.22
65329;BME280;51941;52.210;5.158;2023-01-31T02:49:46;102242.00;;;4.10;82.28
65329;BME280;51941;52.210;5.158;2023-01-31T02:52:22;102224.44;;;4.03;82.12
65329;BME280;51941;52.210;5.158;2023-01-31T02:55:05;102259.19;;;4.30;82.45
65329;BME280;51941;52.210;5.158;2023-01-31T02:57:52;102157.63;;;3.73;82.50
65329;BME280;51941;52.210;5.158;2023-01-31T03:00:19;102262.00;;;4.37;82.57
65329;BME280;51941;52.210;5.158;2023-01-31T03:02:47;102266.81;;;4.42;82.24
65329;BME280;51941;52.210;5.158;2023-01-31T03:05:18;102271.06;;;4.43;82.59
65329;BME280;51941;52.210;5.158;2023-01-31T03:07:47;102269.28;;;4.43;82.85
65329;BME280;51941;52.210;5.158;2023-01-31T03:10:26;102258.63;;;4.45;82.80
65329;BME280;51941;52.210;5.158;2023-01-31T03:13:06;102248.16;;;4.45;82.95
65329;BME280;51941;52.210;5.158;2023-01-31T03:15:46;102244.91;;;4.51;82.64
65329;BME280;51941;52.210;5.158;2023-01-31T03:18:40;102214.13;;;4.27;82.77
65329;BME280;51941;52.210;5.158;2023-01-31T03:21:13;102255.72;;;4.56;82.67
65329;BME280;51941;52.210;5.158;2023-01-31T03:23:44;102245.09;;;4.57;82.76
65329;BME280;51941;52.210;5.158;2023-01-31T03:26:15;102251.97;;;4.58;82.65
65329;BME280;51941;52.210;5.158;2023-01-31T03:28:45;102247.41;;;4.60;82.91
65329;BME280;51941;52.210;5.158;2023-01-31T03:31:22;102246.88;;;4.57;83.37
65329;BME280;51941;52.210;5.158;2023-01-31T03:33:51;102234.44;;;4.59;83.59
65329;BME280;51941;52.210;5.158;2023-01-31T03:36:27;102225.59;;;4.60;83.81
65329;BME280;51941;52.210;5.158;2023-01-31T03:39:13;102214.78;;;4.63;83.67
65329;BME280;51941;52.210;5.158;2023-01-31T03:41:52;102209.22;;;4.66;83.42
65329;BME280;51941;52.210;5.158;2023-01-31T03:44:29;102210.72;;;4.68;83.14
65329;BME280;51941;52.210;5.158;2023-01-31T03:47:02;102212.53;;;4.68;83.33
65329;BME280;51941;52.210;5.158;2023-01-31T03:49:32;102217.63;;;4.70;83.05
65329;BME280;51941;52.210;5.158;2023-01-31T03:52:05;102214.47;;;4.66;83.66
65329;BME280;51941;52.210;5.158;2023-01-31T03:54:36;102158.47;;;4.33;83.48
65329;BME280;51941;52.210;5.158;2023-01-31T03:57:10;102211.81;;;4.58;83.44
65329;BME280;51941;52.210;5.158;2023-01-31T03:59:42;102207.38;;;4.50;83.75
65329;BME280;51941;52.210;5.158;2023-01-31T04:02:11;102192.88;;;4.38;83.60
65329;BME280;51941;52.210;5.158;2023-01-31T04:04:41;102154.78;;;4.18;83.84
65329;BME280;51941;52.210;5.158;2023-01-31T04:07:12;102208.50;;;4.48;83.78
65329;BME280;51941;52.210;5.158;2023-01-31T04:09:39;102204.06;;;4.48;83.70
65329;BME280;51941;52.210;5.158;2023-01-31T04:12:06;102196.06;;;4.50;83.84
65329;BME280;51941;52.210;5.158;2023-01-31T04:14:33;102190.50;;;4.53;83.77
65329;BME280;51941;52.210;5.158;2023-01-31T04:17:00;102195.94;;;4.59;83.77
65329;BME280;51941;52.210;5.158;2023-01-31T04:19:26;102190.19;;;4.64;83.70
65329;BME280;51941;52.210;5.158;2023-01-31T04:21:53;102187.94;;;4.69;84.04
65329;BME280;51941;52.210;5.158;2023-01-31T04:24:21;102183.69;;;4.76;84.20
65329;BME280;51941;52.210;5.158;2023-01-31T04:26:48;102175.19;;;4.82;84.33
65329;BME280;51941;52.210;5.158;2023-01-31T04:29:15;102186.88;;;4.88;84.49
65329;BME280;51941;52.210;5.158;2023-01-31T04:31:42;102185.91;;;4.89;85.33
65329;BME280;51941;52.210;5.158;2023-01-31T04:34:09;102185.25;;;4.95;85.58
65329;BME280;51941;52.210;5.158;2023-01-31T04:36:35;102174.94;;;5.01;85.34
65329;BME280;51941;52.210;5.158;2023-01-31T04:39:02;102181.81;;;5.02;85.76
65329;BME280;51941;52.210;5.158;2023-01-31T04:41:30;102178.53;;;5.09;85.59
65329;BME280;51941;52.210;5.158;2023-01-31T04:43:57;102154.25;;;4.98;85.59
65329;BME280;51941;52.210;5.158;2023-01-31T04:46:24;102170.69;;;5.17;85.58
65329;BME280;51941;52.210;5.158;2023-01-31T04:48:51;102174.13;;;5.17;85.83
65329;BME280;51941;52.210;5.158;2023-01-31T04:51:17;102170.38;;;5.20;85.63
65329;BME280;51941;52.210;5.158;2023-01-31T04:53:44;102166.59;;;5.22;85.56
65329;BME280;51941;52.210;5.158;2023-01-31T04:56:11;102118.84;;;4.94;85.36
65329;BME280;51941;52.210;5.158;2023-01-31T04:58:39;102158.06;;;5.28;85.20
65329;BME280;51941;52.210;5.158;2023-01-31T05:01:07;102158.91;;;5.29;85.47
65329;BME280;51941;52.210;5.158;2023-01-31T05:03:34;102156.25;;;5.29;nan
65329;BME280;51941;52.210;5.158;2023-01-31T05:06:01;102155.75;;;5.33;85.42
65329;BME280;51941;52.210;5.158;2023-01-31T05:08:28;102157.25;;;5.36;85.70
65329;BME280;51941;52.210;5.158;2023-01-31T05:10:58;102158.91;;;5.37;85.61
65329;BME280;51941;52.210;5.158;2023-01-31T05:13:24;102150.34;;;5.35;85.49
65329;BME280;51941;52.210;5.158;2023-01-31T05:15:53;102157.75;;;5.39;85.73
65329;BME280;51941;52.210;5.158;2023-01-31T05:18:20;102158.91;;;5.37;86.06
65329;BME280;51941;52.210;5.158;2023-01-31T05:20:47;102153.81;;;5.35;86.28
65329;BME280;51941;52.210;5.158;2023-01-31T05:23:15;102149.53;;;5.42;85.92
65329;BME280;51941;52.210;5.158;2023-01-31T05:25:42;102154.78;;;5.42;86.02
65329;BME280;51941;52.210;5.158;2023-01-31T05:28:09;102155.59;;;5.43;86.20
65329;BME280;51941;52.210;5.158;2023-01-31T05:30:36;102135.25;;;5.45;86.01
65329;BME280;51941;52.210;5.158;2023-01-31T05:33:04;102103.75;;;5.21;86.10
65329;BME280;51941;52.210;5.158;2023-01-31T05:35:31;102136.06;;;5.46;85.95
65329;BME280;51941;52.210;5.158;2023-01-31T05:37:58;102140.19;;;5.48;85.99
65329;BME280;51941;52.210;5.158;2023-01-31T05:40:25;102140.66;;;5.52;85.88
65329;BME280;51941;52.210;5.158;2023-01-31T05:42:55;102148.38;;;5.53;85.98
65329;BME280;51941;52.210;5.158;2023-01-31T05:45:22;102131.50;;;5.48;86.52
65329;BME280;51941;52.210;5.158;2023-01-31T05:47:49;102131.81;;;5.53;86.17
65329;BME280;51941;52.210;5.158;2023-01-31T05:50:18;102130.00;;;5.45;86.17
65329;BME280;51941;52.210;5.158;2023-01-31T05:52:49;102124.75;;;5.45;86.34
65329;BME280;51941;52.210;5.158;2023-01-31T05:55:16;102131.63;;;5.54;86.03
65329;BME280;51941;52.210;5.158;2023-01-31T05:57:43;102131.63;;;5.62;85.73
65329;BME280;51941;52.210;5.158;2023-01-31T06:00:11;102133.94;;;5.57;85.96
65329;BME280;51941;52.210;5.158;2023-01-31T06:02:38;102133.94;;;5.57;86.11
65329;BME280;51941;52.210;5.158;2023-01-31T06:05:07;102122.78;;;5.63;86.12
65329;BME280;51941;52.210;5.158;2023-01-31T06:07:35;102087.66;;;5.48;85.83
65329;BME280;51941;52.210;5.158;2023-01-31T06:10:03;102109.97;;;5.60;86.12
65329;BME280;51941;52.210;5.158;2023-01-31T06:12:30;102112.09;;;5.65;86.01
65329;BME280;51941;52.210;5.158;2023-01-31T06:14:57;102112.75;;;5.67;85.68
65329;BME280;51941;52.210;5.158;2023-01-31T06:17:24;102112.75;;;5.67;85.63
65329;BME280;51941;52.210;5.158;2023-01-31T06:19:51;102108.31;;;5.67;85.67
65329;BME280;51941;52.210;5.158;2023-01-31T06:22:18;102108.31;;;5.67;85.72
65329;BME280;51941;52.210;5.158;2023-01-31T06:24:46;102117.84;;;5.68;85.89
65329;BME280;51941;52.210;5.158;2023-01-31T06:27:12;102114.41;;;5.68;86.10
65329;BME280;51941;52.210;5.158;2023-01-31T06:29:41;102107.66;;;5.65;86.29
65329;BME280;51941;52.210;5.158;2023-01-31T06:32:08;102111.59;;;5.69;86.53
65329;BME280;51941;52.210;5.158;2023-01-31T06:34:35;102099.13;;;5.63;86.80
65329;BME280;51941;52.210;5.158;2023-01-31T06:37:01;102098.28;;;5.71;86.69
65329;BME280;51941;52.210;5.158;2023-01-31T06:39:28;102104.03;;;5.74;86.79
65329;BME280;51941;52.210;5.158;2023-01-31T06:41:56;102090.91;;;5.74;86.79
65329;BME280;51941;52.210;5.158;2023-01-31T06:44:23;102089.41;;;5.72;87.22
65329;BME280;51941;52.210;5.158;2023-01-31T06:46:50;102084.66;;;5.75;87.25
65329;BME280;51941;52.210;5.158;2023-01-31T06:49:17;102055.97;;;5.58;87.79
65329;BME280;51941;52.210;5.158;2023-01-31T06:51:43;102074.13;;;5.84;87.46
65329;BME280;51941;52.210;5.158;2023-01-31T06:54:10;102076.59;;;5.85;87.35
65329;BME280;51941;52.210;5.158;2023-01-31T06:56:37;102074.13;;;5.84;87.43
65329;BME280;51941;52.210;5.158;2023-01-31T06:59:05;102013.28;;;5.56;87.20
65329;BME280;51941;52.210;5.158;2023-01-31T07:01:32;102048.03;;;5.74;87.50
65329;BME280;51941;52.210;5.158;2023-01-31T07:03:58;102065.88;;;5.87;87.48
65329;BME280;51941;52.210;5.158;2023-01-31T07:06:25;102061.13;;;5.90;87.31
65329;BME280;51941;52.210;5.158;2023-01-31T07:08:52;102058.00;;;5.95;87.53
65329;BME280;51941;52.210;5.158;2023-01-31T07:11:18;102065.69;;;5.96;87.47
65329;BME280;51941;52.210;5.158;2023-01-31T07:13:45;102079.03;;;5.95;87.65
65329;BME280;51941;52.210;5.158;2023-01-31T07:16:14;102072.25;;;6.00;87.57
65329;BME280;51941;52.210;5.158;2023-01-31T07:18:41;102072.72;;;6.04;87.66
65329;BME280;51941;52.210;5.158;2023-01-31T07:21:08;102069.09;;;6.05;87.95
65329;BME280;51941;52.210;5.158;2023-01-31T07:23:35;102052.91;;;5.93;88.03
65329;BME280;51941;52.210;5.158;2023-01-31T07:26:03;102044.88;;;5.95;88.03
65329;BME280;51941;52.210;5.158;2023-01-31T07:28:30;102059.63;;;5.96;88.01
65329;BME280;51941;52.210;5.158;2023-01-31T07:31:03;102048.28;;;5.95;88.39
65329;BME280;51941;52.210;5.158;2023-01-31T07:33:31;102064.63;;;6.13;88.50
65329;BME280;51941;52.210;5.158;2023-01-31T07:36:00;102062.38;;;6.10;88.44
65329;BME280;51941;52.210;5.158;2023-01-31T07:38:26;102051.16;;;6.16;88.43
65329;BME280;51941;52.210;5.158;2023-01-31T07:40:53;102048.03;;;6.21;88.34
65329;BME280;51941;52.210;5.158;2023-01-31T07:43:23;102045.84;;;6.25;88.34
65329;BME280;51941;52.210;5.158;2023-01-31T07:45:50;102042.53;;;6.31;87.97
65329;BME280;51941;52.210;5.158;2023-01-31T07:48:16;102040.25;;;6.28;87.92
65329;BME280;51941;52.210;5.158;2023-01-31T07:50:49;102034.13;;;6.35;87.91
65329;BME280;51941;52.210;5.158;2023-01-31T07:53:16;102028.06;;;6.35;87.76
65329;BME280;51941;52.210;5.158;2023-01-31T07:55:42;102025.59;;;6.33;87.71
65329;BME280;51941;52.210;5.158;2023-01-31T07:58:12;102024.78;;;6.33;87.73
65329;BME280;51941;52.210;5.158;2023-01-31T08:00:38;102013.38;;;6.40;87.80
65329;BME280;51941;52.210;5.158;2023-01-31T08:03:24;102008.94;;;6.41;87.31
65329;BME280;51941;52.210;5.158;2023-01-31T08:06:06;102011.56;;;6.41;87.13
65329;BME280;51941;52.210;5.158;2023-01-31T08:08:34;102015.72;;;6.35;87.07
65329;BME280;51941;52.210;5.158;2023-01-31T08:11:01;102011.47;;;6.34;86.85
65329;BME280;51941;52.210;5.158;2023-01-31T08:13:29;101999.63;;;6.30;86.91
65329;BME280;51941;52.210;5.158;2023-01-31T08:15:56;101962.72;;;6.24;86.73
65329;BME280;51941;52.210;5.158;2023-01-31T08:18:23;101995.13;;;6.47;86.61
65329;BME280;51941;52.210;5.158;2023-01-31T08:20:49;101947.75;;;6.24;86.40
65329;BME280;51941;52.210;5.158;2023-01-31T08:23:17;101993.53;;;6.61;86.38
65329;BME280;51941;52.210;5.158;2023-01-31T08:25:44;101959.56;;;6.51;86.24
65329;BME280;51941;52.210;5.158;2023-01-31T08:28:11;101986.56;;;6.68;86.05
65329;BME280;51941;52.210;5.158;2023-01-31T08:30:39;101988.66;;;6.72;85.89
65329;BME280;51941;52.210;5.158;2023-01-31T08:33:07;101991.91;;;6.74;85.71
65329;BME280;51941;52.210;5.158;2023-01-31T08:35:34;101989.28;;;6.74;85.66
65329;BME280;51941;52.210;5.158;2023-01-31T08:38:02;101983.59;;;6.71;85.33
65329;BME280;51941;52.210;5.158;2023-01-31T08:40:30;101990.00;;;6.68;85.34
65329;BME280;51941;52.210;5.158;2023-01-31T08:42:58;101985.66;;;6.75;85.27
65329;BME280;51941;52.210;5.158;2023-01-31T08:45:26;101997.25;;;6.66;85.31
65329;BME280;51941;52.210;5.158;2023-01-31T08:47:54;101978.72;;;6.82;85.15
65329;BME280;51941;52.210;5.158;2023-01-31T08:50:22;101957.38;;;6.77;85.08
65329;BME280;51941;52.210;5.158;2023-01-31T08:52:52;101992.25;;;6.94;84.77
65329;BME280;51941;52.210;5.158;2023-01-31T08:55:20;102002.50;;;6.89;84.55
65329;BME280;51941;52.210;5.158;2023-01-31T08:57:49;102002.41;;;6.82;84.26
65329;BME280;51941;52.210;5.158;2023-01-31T09:00:17;102009.47;;;6.82;84.57
65329;BME280;51941;52.210;5.158;2023-01-31T09:02:44;101992.75;;;6.75;84.44
65329;BME280;51941;52.210;5.158;2023-01-31T09:05:12;102000.56;;;6.83;84.58
65329;BME280;51941;52.210;5.158;2023-01-31T09:07:38;101987.94;;;6.78;84.44
65329;BME280;51941;52.210;5.158;2023-01-31T09:10:06;101987.13;;;6.78;84.64
65329;BME280;51941;52.210;5.158;2023-01-31T09:12:32;101951.34;;;6.69;84.62
65329;BME280;51941;52.210;5.158;2023-01-31T09:15:01;101979.81;;;6.88;84.43
65329;BME280;51941;52.210;5.158;2023-01-31T09:17:28;101971.03;;;6.96;84.42
65329;BME280;51941;52.210;5.158;2023-01-31T09:19:54;101955.06;;;7.12;84.23
65329;BME280;51941;52.210;5.158;2023-01-31T09:22:21;101954.41;;;7.10;83.79
65329;BME280;51941;52.210;5.158;2023-01-31T09:24:48;101962.19;;;7.26;83.48
65329;BME280;51941;52.210;5.158;2023-01-31T09:27:15;101962.56;;;7.38;83.32
65329;BME280;51941;52.210;5.158;2023-01-31T09:29:41;101967.56;;;7.33;83.18
65329;BME280;51941;52.210;5.158;2023-01-31T09:32:10;101959.56;;;7.41;82.95
65329;BME280;51941;52.210;5.158;2023-01-31T09:34:36;101960.31;;;7.35;82.64
65329;BME280;51941;52.210;5.158;2023-01-31T09:37:03;101949.66;;;7.43;82.56
65329;BME280;51941;52.210;5.158;2023-01-31T09:39:30;101953.13;;;7.43;82.66
65329;BME280;51941;52.210;5.158;2023-01-31T09:41:59;101949.09;;;7.47;82.39
65329;BME280;51941;52.210;5.158;2023-01-31T09:44:29;101952.66;;;7.40;82.57
65329;BME280;51941;52.210;5.158;2023-01-31T09:47:03;101950.38;;;7.37;82.81
65329;BME280;51941;52.210;5.158;2023-01-31T09:49:42;101942.38;;;7.45;82.82
65329;BME280;51941;52.210;5.158;2023-01-31T09:52:10;101954.47;;;7.54;82.88
65329;BME280;51941;52.210;5.158;2023-01-31T09:54:38;101946.13;;;7.50;82.57
65329;BME280;51941;52.210;5.158;2023-01-31T09:57:19;101960.16;;;7.72;82.40
65329;BME280;51941;52.210;5.158;2023-01-31T09:59:52;101963.91;;;7.78;82.34
65329;BME280;51941;52.210;5.158;2023-01-31T10:02:41;101959.22;;;7.80;81.97
65329;BME280;51941;52.210;5.158;2023-01-31T10:05:21;101945.63;;;7.76;81.94
65329;BME280;51941;52.210;5.158;2023-01-31T10:07:54;101951.91;;;7.75;81.90
65329;BME280;51941;52.210;5.158;2023-01-31T10:10:32;101951.44;;;7.72;82.05
65329;BME280;51941;52.210;5.158;2023-01-31T10:13:04;101949.91;;;7.77;82.16
65329;BME280;51941;52.210;5.158;2023-01-31T10:15:39;101935.44;;;7.73;82.20
65329;BME280;51941;52.210;5.158;2023-01-31T10:18:11;101933.91;;;7.79;82.25
65329;BME280;51941;52.210;5.158;2023-01-31T10:20:45;101948.78;;;7.86;82.30
65329;BME280;51941;52.210;5.158;2023-01-31T10:23:16;101944.94;;;7.89;82.31
65329;BME280;51941;52.210;5.158;2023-01-31T10:25:51;101864.81;;;7.47;82.02
65329;BME280;51941;52.210;5.158;2023-01-31T10:28:21;101943.94;;;7.90;82.06
65329;BME280;51941;52.210;5.158;2023-01-31T10:30:55;101933.97;;;7.85;82.47
65329;BME280;51941;52.210;5.158;2023-01-31T10:33:29;101938.31;;;7.93;82.51
65329;BME280;51941;52.210;5.158;2023-01-31T10:36:03;101921.03;;;7.90;82.48
65329;BME280;51941;52.210;5.158;2023-01-31T10:38:38;101888.28;;;7.78;82.87
65329;BME280;51941;52.210;5.158;2023-01-31T10:41:12;101931.25;;;8.15;82.78
65329;BME280;51941;52.210;5.158;2023-01-31T10:43:45;101907.88;;;8.12;82.69
65329;BME280;51941;52.210;5.158;2023-01-31T10:46:14;101927.97;;;8.13;83.16
65329;BME280;51941;52.210;5.158;2023-01-31T10:48:43;101934.81;;;8.07;83.60
65329;BME280;51941;52.210;5.158;2023-01-31T10:51:20;101935.44;;;8.09;83.91
65329;BME280;51941;52.210;5.158;2023-01-31T10:54:04;101937.91;;;8.11;84.36
65329;BME280;51941;52.210;5.158;2023-01-31T10:56:40;101947.50;;;7.97;84.90
65329;BME280;51941;52.210;5.158;2023-01-31T10:59:12;101945.75;;;7.89;85.66
65329;BME280;51941;52.210;5.158;2023-01-31T11:01:43;101944.13;;;7.88;85.95
65329;BME280;51941;52.210;5.158;2023-01-31T11:04:24;101952.50;;;7.92;86.27
65329;BME280;51941;52.210;5.158;2023-01-31T11:06:57;101951.16;;;7.81;86.87
65329;BME280;51941;52.210;5.158;2023-01-31T11:09:26;101959.44;;;7.78;87.16
65329;BME280;51941;52.210;5.158;2023-01-31T11:11:56;101954.59;;;7.82;87.51
65329;BME280;51941;52.210;5.158;2023-01-31T11:14:23;101950.78;;;7.84;87.34
65329;BME280;51941;52.210;5.158;2023-01-31T11:16:56;101957.88;;;7.84;87.72
65329;BME280;51941;52.210;5.158;2023-01-31T11:19:28;101954.06;;;7.86;87.72
65329;BME280;51941;52.210;5.158;2023-01-31T11:21:58;101949.03;;;7.91;87.76
65329;BME280;51941;52.210;5.158;2023-01-31T11:24:27;101950.69;;;7.92;87.75
65329;BME280;51941;52.210;5.158;2023-01-31T11:27:01;101931.44;;;7.77;87.89
65329;BME280;51941;52.210;5.158;2023-01-31T11:29:31;101935.63;;;7.86;87.77
65329;BME280;51941;52.210;5.158;2023-01-31T11:32:01;101939.88;;;7.87;87.91
65329;BME280;51941;52.210;5.158;2023-01-31T11:34:30;101907.19;;;7.67;88.04
65329;BME280;51941;52.210;5.158;2023-01-31T11:37:14;101899.41;;;7.59;88.01
65329;BME280;51941;52.210;5.158;2023-01-31T11:39:53;101919.63;;;7.88;87.77
65329;BME280;51941;52.210;5.158;2023-01-31T11:42:21;101927.94;;;7.91;87.31
65329;BME280;51941;52.210;5.158;2023-01-31T11:44:58;101920.31;;;7.96;87.23
65329;BME280;51941;52.210;5.158;2023-01-31T11:47:38;101900.72;;;7.84;86.83
65329;BME280;51941;52.210;5.158;2023-01-31T11:50:17;101917.03;;;7.94;86.73
65329;BME280;51941;52.210;5.158;2023-01-31T11:52:53;101911.47;;;8.04;86.60
65329;BME280;51941;52.210;5.158;2023-01-31T11:55:20;101904.25;;;8.13;86.35
65329;BME280;51941;52.210;5.158;2023-01-31T11:57:54;101906.72;;;8.14;86.06
65329;BME280;51941;52.210;5.158;2023-01-31T12:00:23;101912.16;;;8.13;85.91
65329;BME280;51941;52.210;5.158;2023-01-31T12:02:58;101897.34;;;8.12;85.94
65329;BME280;51941;52.210;5.158;2023-01-31T12:05:34;101852.78;;;7.95;85.78
65329;BME280;51941;52.210;5.158;2023-01-31T12:08:08;101893.19;;;8.24;85.67
65329;BME280;51941;52.210;5.158;2023-01-31T12:10:52;101883.13;;;8.34;85.56
65329;BME280;51941;52.210;5.158;2023-01-31T12:13:20;101885.63;;;8.42;85.09
65329;BME280;51941;52.210;5.158;2023-01-31T12:15:54;101889.03;;;8.36;84.80
65329;BME280;51941;52.210;5.158;2023-01-31T12:21:26;101877.47;;;8.58;84.20
65329;BME280;51941;52.210;5.158;2023-01-31T12:24:06;101885.56;;;8.57;84.11
65329;BME280;51941;52.210;5.158;2023-01-31T12:26:43;101877.88;;;8.62;84.14
65329;BME280;51941;52.210;5.158;2023-01-31T12:29:26;101863.91;;;8.68;83.95
65329;BME280;51941;52.210;5.158;2023-01-31T12:32:08;101865.78;;;8.74;83.70
65329;BME280;51941;52.210;5.158;2023-01-31T12:34:58;101865.00;;;8.80;83.15
65329;BME280;51941;52.210;5.158;2023-01-31T12:37:38;101858.50;;;8.76;82.92
65329;BME280;51941;52.210;5.158;2023-01-31T12:42:56;101836.44;;;8.90;82.70
65329;BME280;51941;52.210;5.158;2023-01-31T12:45:33;101851.75;;;9.08;82.39
65329;BME280;51941;52.210;5.158;2023-01-31T12:51:07;101851.25;;;9.19;81.77
65329;BME280;51941;52.210;5.158;2023-01-31T12:54:00;101848.75;;;9.11;81.52
65329;BME280;51941;52.210;5.158;2023-01-31T12:56:41;101847.09;;;9.10;81.77
65329;BME280;51941;52.210;5.158;2023-01-31T12:59:23;101846.69;;;9.13;81.35
65329;BME280;51941;52.210;5.158;2023-01-31T13:01:57;101847.28;;;9.08;81.56
65329;BME280;51941;52.210;5.158;2023-01-31T13:04:32;101843.22;;;9.12;81.62
65329;BME280;51941;52.210;5.158;2023-01-31T13:07:04;101831.00;;;9.05;81.55
65329;BME280;51941;52.210;5.158;2023-01-31T13:09:33;101842.31;;;9.20;81.59
65329;BME280;51941;52.210;5.158;2023-01-31T13:12:04;101835.75;;;9.16;81.72
65329;BME280;51941;52.210;5.158;2023-01-31T13:14:36;101826.19;;;9.15;81.40
65329;BME280;51941;52.210;5.158;2023-01-31T13:17:05;101838.44;;;9.23;81.36
65329;BME280;51941;52.210;5.158;2023-01-31T13:19:38;101839.41;;;9.15;81.56
65329;BME280;51941;52.210;5.158;2023-01-31T13:22:12;101822.78;;;9.21;81.41
65329;BME280;51941;52.210;5.158;2023-01-31T13:24:41;101831.28;;;9.16;81.20
65329;BME280;51941;52.210;5.158;2023-01-31T13:27:15;101835.75;;;9.16;81.37
65329;BME280;51941;52.210;5.158;2023-01-31T13:29:48;101837.44;;;9.24;81.28